createdAt,value
2023-05-01T00:00:59.359Z,71.04
2023-05-01T00:03:27.404Z,70.36
2023-05-01T00:06:01.250Z,70.13
2023-05-01T00:08:28.976Z,70.37
2023-05-01T00:10:56.545Z,70.55
2023-05-01T00:13:24.848Z,70.38
2023-05-01T00:15:52.336Z,70.58
2023-05-01T00:18:19.799Z,71.21
2023-05-01T00:20:47.203Z,68.83
2023-05-01T00:23:14.596Z,67.45
2023-05-01T00:25:42.448Z,66.38
2023-05-01T00:28:09.814Z,64.62
2023-05-01T00:30:37.665Z,64.52
2023-05-01T00:33:05.119Z,63.11
2023-05-01T00:35:32.590Z,63.14
2023-05-01T00:38:00.001Z,62.29
2023-05-01T00:40:28.015Z,61.46
2023-05-01T00:42:56.650Z,61.29
2023-05-01T00:45:25.416Z,60.71
2023-05-01T00:47:55.751Z,60.43
2023-05-01T00:50:23.138Z,60.12
2023-05-01T00:52:50.545Z,60.25
2023-05-01T00:55:17.977Z,59.67
2023-05-01T00:57:47.726Z,59.61
2023-05-01T01:00:16.862Z,59.59
2023-05-01T01:02:44.249Z,59.51
2023-05-01T01:05:11.787Z,60.07
2023-05-01T01:08:08.308Z,59.27
2023-05-01T01:10:46.968Z,59.26
2023-05-01T01:13:20.235Z,59.42
2023-05-01T01:16:29.452Z,59.64
2023-05-01T01:19:06.684Z,59.89
2023-05-01T01:21:42.857Z,60.28
2023-05-01T01:24:42.593Z,60.25
2023-05-01T01:27:36.141Z,60.63
2023-05-01T01:30:22.174Z,61.22
2023-05-01T01:33:25.002Z,61.40
2023-05-01T01:36:00.269Z,60.93
2023-05-01T01:38:40.405Z,61.47
2023-05-01T01:41:17.652Z,61.28
2023-05-01T01:43:53.196Z,60.76
2023-05-01T01:46:24.163Z,60.44
2023-05-01T01:48:54.848Z,60.62
2023-05-01T01:51:26.847Z,60.30
2023-05-01T01:53:56.173Z,60.85
2023-05-01T01:56:27.911Z,61.24
2023-05-01T01:58:56.980Z,60.49
2023-05-01T02:01:25.424Z,61.33
2023-05-01T02:03:55.443Z,60.11
2023-05-01T02:06:24.795Z,59.85
2023-05-01T02:08:53.650Z,59.85
2023-05-01T02:11:22.149Z,60.11
2023-05-01T02:13:54.057Z,59.59
2023-05-01T02:16:25.346Z,59.70
2023-05-01T02:18:55.597Z,60.01
2023-05-01T02:21:24.112Z,60.40
2023-05-01T02:23:52.099Z,61.04
2023-05-01T02:26:24.888Z,60.42
2023-05-01T02:28:52.302Z,59.77
2023-05-01T02:31:20.556Z,59.92
2023-05-01T02:33:49.499Z,60.18
2023-05-01T02:36:17.267Z,60.04
2023-05-01T02:38:47.175Z,60.25
2023-05-01T02:41:15.773Z,60.34
2023-05-01T02:43:46.685Z,60.64
2023-05-01T02:46:16.544Z,61.29
2023-05-01T02:48:44.977Z,61.12
2023-05-01T02:51:13.775Z,61.62
2023-05-01T02:53:41.931Z,61.46
2023-05-01T02:56:19.008Z,61.28
2023-05-01T02:58:49.399Z,61.58
2023-05-01T03:01:16.943Z,61.21
2023-05-01T03:03:45.129Z,61.17
2023-05-01T03:06:14.365Z,62.14
2023-05-01T03:08:42.122Z,61.63
2023-05-01T03:11:09.600Z,61.49
2023-05-01T03:13:37.112Z,60.70
2023-05-01T03:16:04.826Z,60.74
2023-05-01T03:18:32.251Z,60.06
2023-05-01T03:20:59.686Z,60.11
2023-05-01T03:23:28.612Z,59.99
2023-05-01T03:25:56.023Z,60.02
2023-05-01T03:28:23.916Z,60.04
2023-05-01T03:30:53.300Z,59.74
2023-05-01T03:33:21.112Z,59.29
2023-05-01T03:35:48.728Z,59.44
2023-05-01T03:38:17.069Z,58.63
2023-05-01T03:41:05.163Z,58.16
2023-05-01T03:43:51.105Z,57.81
2023-05-01T03:46:30.398Z,57.95
2023-05-01T03:48:58.470Z,58.25
2023-05-01T03:51:27.370Z,57.61
2023-05-01T03:53:59.019Z,56.83
2023-05-01T03:56:35.579Z,56.96
2023-05-01T03:59:04.070Z,56.12
2023-05-01T04:01:33.693Z,56.04
2023-05-01T04:04:02.383Z,55.12
2023-05-01T04:06:30.100Z,54.46
2023-05-01T04:08:57.517Z,54.51
2023-05-01T04:11:24.905Z,53.25
2023-05-01T04:13:52.448Z,53.46
2023-05-01T04:16:20.633Z,53.52
2023-05-01T04:18:48.236Z,52.17
2023-05-01T04:21:18.995Z,51.82
2023-05-01T04:23:50.959Z,51.54
2023-05-01T04:26:19.291Z,51.33
2023-05-01T04:28:46.876Z,50.06
2023-05-01T04:31:17.427Z,49.07
2023-05-01T04:33:44.878Z,48.61
2023-05-01T04:36:12.958Z,49.76
2023-05-01T04:38:40.375Z,48.78
2023-05-01T04:41:07.968Z,48.87
2023-05-01T04:43:35.316Z,49.48
2023-05-01T04:46:06.281Z,50.34
2023-05-01T04:48:33.775Z,49.44
2023-05-01T04:51:03.594Z,50.02
2023-05-01T04:53:34.083Z,49.71
2023-05-01T04:56:02.909Z,50.72
2023-05-01T04:58:32.147Z,50.96
2023-05-01T05:01:05.094Z,51.03
2023-05-01T05:03:32.689Z,51.35
2023-05-01T05:06:00.431Z,51.22
2023-05-01T05:08:27.846Z,51.23
2023-05-01T05:10:59.094Z,51.24
2023-05-01T05:13:46.944Z,51.26
2023-05-01T05:16:14.841Z,50.67
2023-05-01T05:18:42.690Z,50.69
2023-05-01T05:21:10.778Z,50.51
2023-05-01T05:23:41.855Z,51.07
2023-05-01T05:26:09.293Z,51.00
2023-05-01T05:28:36.661Z,50.89
2023-05-01T05:31:06.979Z,51.22
2023-05-01T05:33:35.115Z,50.83
2023-05-01T05:36:03.140Z,50.87
2023-05-01T05:38:36.049Z,50.85
2023-05-01T05:41:05.141Z,51.24
2023-05-01T05:43:32.837Z,51.39
2023-05-01T05:46:03.099Z,50.17
2023-05-01T05:48:33.354Z,50.29
2023-05-01T05:51:01.119Z,50.40
2023-05-01T05:53:28.829Z,50.92
2023-05-01T05:55:56.270Z,51.04
2023-05-01T05:58:24.683Z,51.37
2023-05-01T06:00:53.277Z,51.15
2023-05-01T06:03:21.098Z,51.56
2023-05-01T06:05:50.807Z,51.00
2023-05-01T06:08:19.187Z,51.50
2023-05-01T06:10:46.684Z,51.31
2023-05-01T06:13:15.066Z,51.95
2023-05-01T06:15:49.074Z,52.19
2023-05-01T06:18:17.095Z,52.15
2023-05-01T06:20:45.779Z,52.45
2023-05-01T06:23:13.877Z,52.47
2023-05-01T06:25:54.065Z,52.53
2023-05-01T06:28:21.536Z,52.45
2023-05-01T06:30:48.937Z,52.68
2023-05-01T06:33:20.308Z,52.35
2023-05-01T06:35:59.633Z,52.03
2023-05-01T06:38:27.337Z,52.54
2023-05-01T06:40:55.066Z,52.93
2023-05-01T06:43:22.453Z,52.68
2023-05-01T06:45:50.088Z,52.53
2023-05-01T06:48:17.469Z,52.33
2023-05-01T06:50:44.899Z,53.17
2023-05-01T06:53:15.000Z,53.69
2023-05-01T06:55:42.329Z,53.39
2023-05-01T06:58:22.726Z,53.40
2023-05-01T07:00:55.003Z,52.90
2023-05-01T07:03:23.185Z,53.22
2023-05-01T07:05:50.700Z,53.25
2023-05-01T07:08:18.120Z,53.83
2023-05-01T07:10:45.592Z,52.52
2023-05-01T07:13:13.008Z,53.19
2023-05-01T07:15:40.294Z,52.57
2023-05-01T07:18:07.704Z,51.74
2023-05-01T07:20:35.103Z,52.14
2023-05-01T07:23:02.924Z,51.42
2023-05-01T07:25:31.267Z,51.78
2023-05-01T07:28:00.802Z,52.13
2023-05-01T07:30:30.425Z,51.44
2023-05-01T07:32:58.057Z,51.73
2023-05-01T07:35:25.555Z,51.52
2023-05-01T07:37:53.015Z,50.87
2023-05-01T07:40:20.687Z,50.40
2023-05-01T07:42:48.068Z,49.73
2023-05-01T07:45:18.407Z,49.53
2023-05-01T07:47:46.161Z,49.99
2023-05-01T07:50:13.566Z,49.38
2023-05-01T07:52:40.948Z,49.44
2023-05-01T07:55:08.922Z,49.35
2023-05-01T07:57:36.407Z,49.49
2023-05-01T08:00:04.234Z,49.50
2023-05-01T08:02:41.350Z,48.89
2023-05-01T08:05:09.568Z,48.44
2023-05-01T08:07:36.927Z,48.05
2023-05-01T08:10:04.805Z,48.08
2023-05-01T08:12:32.343Z,48.15
2023-05-01T08:14:59.648Z,48.97
2023-05-01T08:17:27.112Z,47.44
2023-05-01T08:19:56.712Z,47.52
2023-05-01T08:22:24.445Z,47.50
2023-05-01T08:24:51.888Z,47.53
2023-05-01T08:27:19.499Z,45.89
2023-05-01T08:29:46.985Z,45.34
2023-05-01T08:32:15.449Z,44.63
2023-05-01T08:34:42.765Z,44.49
2023-05-01T08:37:10.171Z,44.73
2023-05-01T08:39:37.923Z,45.09
2023-05-01T08:42:05.502Z,44.99
2023-05-01T08:44:37.637Z,44.33
2023-05-01T08:47:08.666Z,44.27
2023-05-01T08:49:37.754Z,44.23
2023-05-01T08:52:06.448Z,43.77
2023-05-01T08:54:35.017Z,44.40
2023-05-01T08:57:04.558Z,45.06
2023-05-01T08:59:34.490Z,42.91
2023-05-01T09:02:05.756Z,42.99
2023-05-01T09:04:35.880Z,43.38
2023-05-01T09:07:04.952Z,42.70
2023-05-01T09:09:33.622Z,42.37
2023-05-01T09:12:16.166Z,41.30
2023-05-01T09:14:43.545Z,41.31
2023-05-01T09:17:12.319Z,41.70
2023-05-01T09:19:41.017Z,40.48
2023-05-01T09:22:10.030Z,41.16
2023-05-01T09:24:39.677Z,41.56
2023-05-01T09:27:07.778Z,41.76
2023-05-01T09:29:39.408Z,41.66
2023-05-01T09:32:13.510Z,41.08
2023-05-01T09:34:41.057Z,41.08
2023-05-01T09:37:10.876Z,41.41
2023-05-01T09:39:38.284Z,41.46
2023-05-01T09:42:05.717Z,40.06
2023-05-01T09:44:42.231Z,41.06
2023-05-01T09:47:10.186Z,40.57
2023-05-01T09:49:50.636Z,42.10
2023-05-01T09:52:18.132Z,42.12
2023-05-01T09:54:45.620Z,42.14
2023-05-01T09:57:13.701Z,41.69
2023-05-01T09:59:41.067Z,42.04
2023-05-01T10:02:28.353Z,42.35
2023-05-01T10:05:03.650Z,42.38
2023-05-01T10:07:31.144Z,43.29
2023-05-01T10:10:00.045Z,42.48
2023-05-01T10:12:30.455Z,43.06
2023-05-01T10:14:58.285Z,41.96
2023-05-01T10:17:25.745Z,41.77
2023-05-01T10:19:53.309Z,41.93
2023-05-01T10:22:20.756Z,42.22
2023-05-01T10:24:48.295Z,41.62
2023-05-01T10:27:17.108Z,42.81
2023-05-01T10:29:47.917Z,42.93
2023-05-01T10:32:15.328Z,42.53
2023-05-01T10:34:48.409Z,42.26
2023-05-01T10:37:31.353Z,41.69
2023-05-01T10:40:01.062Z,42.61
2023-05-01T10:42:28.987Z,41.37
2023-05-01T10:45:27.961Z,41.29
2023-05-01T10:47:55.286Z,40.69
2023-05-01T10:50:22.847Z,41.37
2023-05-01T10:53:12.498Z,40.13
2023-05-01T10:55:45.228Z,40.35
2023-05-01T10:58:14.280Z,41.16
2023-05-01T11:00:44.493Z,40.29
2023-05-01T11:03:21.191Z,41.27
2023-05-01T11:06:01.469Z,41.56
2023-05-01T11:08:33.451Z,41.66
2023-05-01T11:11:27.033Z,41.55
2023-05-01T11:14:08.646Z,40.72
2023-05-01T11:16:39.467Z,41.16
2023-05-01T11:19:09.710Z,41.46
2023-05-01T11:21:39.021Z,40.74
2023-05-01T11:24:06.860Z,40.87
2023-05-01T11:26:39.743Z,41.63
2023-05-01T11:29:08.183Z,40.76
2023-05-01T11:31:36.000Z,41.65
2023-05-01T11:34:03.727Z,42.86
2023-05-01T11:36:48.638Z,41.12
2023-05-01T11:39:19.450Z,41.90
2023-05-01T11:41:47.753Z,41.60
2023-05-01T11:44:16.761Z,42.15
2023-05-01T11:46:44.646Z,41.32
2023-05-01T11:49:12.295Z,41.63
2023-05-01T11:51:40.064Z,41.82
2023-05-01T11:54:09.591Z,42.04
2023-05-01T11:56:37.812Z,42.48
2023-05-01T11:59:17.348Z,41.99
2023-05-01T12:01:46.690Z,41.57
2023-05-01T12:04:24.313Z,42.07
2023-05-01T12:06:51.987Z,43.17
2023-05-01T12:09:21.486Z,43.52
2023-05-01T12:11:52.569Z,42.76
2023-05-01T12:14:22.120Z,42.43
2023-05-01T12:16:49.829Z,42.64
2023-05-01T12:19:17.970Z,42.63
2023-05-01T12:21:45.745Z,44.53
2023-05-01T12:24:17.886Z,43.92
2023-05-01T12:26:46.462Z,44.20
2023-05-01T12:29:14.006Z,43.32
2023-05-01T12:31:49.062Z,42.96
2023-05-01T12:34:16.591Z,42.70
2023-05-01T12:36:53.198Z,42.95
2023-05-01T12:39:23.475Z,43.14
2023-05-01T12:41:51.535Z,42.81
2023-05-01T12:44:23.671Z,42.87
2023-05-01T12:47:01.145Z,43.85
2023-05-01T12:49:29.819Z,42.80
2023-05-01T12:51:59.473Z,42.67
2023-05-01T12:54:34.241Z,41.14
2023-05-01T12:57:14.630Z,40.41
2023-05-01T12:59:43.828Z,40.88
2023-05-01T13:02:16.067Z,41.04
2023-05-01T13:04:44.607Z,40.78
2023-05-01T13:07:16.641Z,41.51
2023-05-01T13:10:13.069Z,42.43
2023-05-01T13:12:44.661Z,42.63
2023-05-01T13:15:22.207Z,43.70
2023-05-01T13:17:49.853Z,45.35
2023-05-01T13:20:26.695Z,45.88
2023-05-01T13:22:55.081Z,45.00
2023-05-01T13:25:23.399Z,45.60
2023-05-01T13:27:53.876Z,45.85
2023-05-01T13:30:32.227Z,46.21
2023-05-01T13:33:00.544Z,47.11
2023-05-01T13:35:28.129Z,46.14
2023-05-01T13:37:55.626Z,47.46
2023-05-01T13:40:26.071Z,47.52
2023-05-01T13:42:55.260Z,45.60
2023-05-01T13:45:22.937Z,45.55
2023-05-01T13:47:51.958Z,45.52
2023-05-01T13:50:19.737Z,46.21
2023-05-01T13:52:49.526Z,46.96
2023-05-01T13:55:17.881Z,47.70
2023-05-01T13:57:45.416Z,47.96
2023-05-01T14:00:19.844Z,47.69
2023-05-01T14:02:49.114Z,48.72
2023-05-01T14:05:28.251Z,48.26
2023-05-01T14:07:58.345Z,49.14
2023-05-01T14:10:28.231Z,48.10
2023-05-01T14:12:57.948Z,49.18
2023-05-01T14:15:25.516Z,49.59
2023-05-01T14:17:56.078Z,49.80
2023-05-01T14:20:25.683Z,49.63
2023-05-01T14:22:53.516Z,49.58
2023-05-01T14:25:29.909Z,49.38
2023-05-01T14:27:59.047Z,49.35
2023-05-01T14:30:39.400Z,49.07
2023-05-01T14:33:12.750Z,49.31
2023-05-01T14:35:48.624Z,49.87
2023-05-01T14:38:22.644Z,50.82
2023-05-01T14:40:50.088Z,49.71
2023-05-01T14:43:19.163Z,49.51
2023-05-01T14:45:46.778Z,49.01
2023-05-01T14:48:23.259Z,49.33
2023-05-01T14:50:51.148Z,48.97
2023-05-01T14:53:18.786Z,48.40
2023-05-01T14:55:50.380Z,48.36
2023-05-01T14:58:23.979Z,47.97
2023-05-01T15:00:51.337Z,48.15
2023-05-01T15:03:18.816Z,47.68
2023-05-01T15:05:46.548Z,47.85
2023-05-01T15:08:13.958Z,48.36
2023-05-01T15:10:41.971Z,48.05
2023-05-01T15:13:09.383Z,49.30
2023-05-01T15:15:36.692Z,49.03
2023-05-01T15:18:04.206Z,49.56
2023-05-01T15:20:31.780Z,49.99
2023-05-01T15:22:59.161Z,49.78
2023-05-01T15:25:26.647Z,50.65
2023-05-01T15:27:55.229Z,51.04
2023-05-01T15:30:22.891Z,51.09
2023-05-01T15:32:50.534Z,50.69
2023-05-01T15:35:18.218Z,49.50
2023-05-01T15:37:48.532Z,49.60
2023-05-01T15:40:16.002Z,49.09
2023-05-01T15:42:43.578Z,49.02
2023-05-01T15:45:11.350Z,48.09
2023-05-01T15:47:38.778Z,47.96
2023-05-01T15:50:10.912Z,48.73
2023-05-01T15:52:38.729Z,48.86
2023-05-01T15:55:06.686Z,48.77
2023-05-01T15:57:34.587Z,49.09
2023-05-01T16:00:02.153Z,49.80
2023-05-01T16:02:32.738Z,50.12
2023-05-01T16:05:03.547Z,50.53
2023-05-01T16:07:33.918Z,50.54
2023-05-01T16:10:01.727Z,50.39
2023-05-01T16:12:30.276Z,50.90
2023-05-01T16:14:58.176Z,51.31
2023-05-01T16:17:28.854Z,52.17
2023-05-01T16:19:56.638Z,51.54
2023-05-01T16:22:25.040Z,52.01
2023-05-01T16:24:52.424Z,52.35
2023-05-01T16:27:19.824Z,52.38
2023-05-01T16:29:47.278Z,52.29
2023-05-01T16:32:17.031Z,52.75
2023-05-01T16:34:44.693Z,53.29
2023-05-01T16:37:15.122Z,54.07
2023-05-01T16:39:42.662Z,54.37
2023-05-01T16:42:12.585Z,54.04
2023-05-01T16:44:40.467Z,54.49
2023-05-01T16:47:11.441Z,54.90
2023-05-01T16:49:41.964Z,54.56
2023-05-01T16:52:15.978Z,54.99
2023-05-01T16:54:43.338Z,54.30
2023-05-01T16:57:10.814Z,54.91
2023-05-01T16:59:38.339Z,55.78
2023-05-01T17:02:06.864Z,55.91
2023-05-01T17:04:34.418Z,57.36
2023-05-01T17:07:01.772Z,58.54
2023-05-01T17:09:29.187Z,59.23
2023-05-01T17:11:57.571Z,60.26
2023-05-01T17:14:25.237Z,60.99
2023-05-01T17:16:54.255Z,62.66
2023-05-01T17:19:21.598Z,61.35
2023-05-01T17:21:48.899Z,62.21
2023-05-01T17:24:17.565Z,63.38
2023-05-01T17:26:44.950Z,63.93
2023-05-01T17:29:12.359Z,63.99
2023-05-01T17:31:39.724Z,64.13
2023-05-01T17:34:07.247Z,64.90
2023-05-01T17:36:34.719Z,66.02
2023-05-01T17:39:02.315Z,66.22
2023-05-01T17:41:30.046Z,67.65
2023-05-01T17:44:00.825Z,66.29
2023-05-01T17:46:28.216Z,68.81
2023-05-01T17:48:55.757Z,66.55
2023-05-01T17:51:25.695Z,66.50
2023-05-01T17:53:53.296Z,67.64
2023-05-01T17:56:24.329Z,68.12
2023-05-01T17:58:51.694Z,69.89
2023-05-01T18:01:19.555Z,69.72
2023-05-01T18:03:49.142Z,70.26
2023-05-01T18:06:17.211Z,72.63
2023-05-01T18:08:44.664Z,72.93
2023-05-01T18:11:11.968Z,72.52
2023-05-01T18:13:40.049Z,72.92
2023-05-01T18:16:07.509Z,72.69
2023-05-01T18:18:37.118Z,74.57
2023-05-01T18:21:04.478Z,72.36
2023-05-01T18:23:31.899Z,73.75
2023-05-01T18:25:59.812Z,75.48
2023-05-01T18:28:27.195Z,77.10
2023-05-01T18:30:54.803Z,77.73
2023-05-01T18:33:22.627Z,80.71
2023-05-01T18:35:52.860Z,82.68
2023-05-01T18:38:20.366Z,82.48
2023-05-01T18:40:48.073Z,80.09
2023-05-01T18:43:18.419Z,79.30
2023-05-01T18:45:46.005Z,79.33
2023-05-01T18:48:13.425Z,81.35
2023-05-01T18:50:42.530Z,82.21
2023-05-01T18:53:09.926Z,81.30
2023-05-01T18:55:37.273Z,82.86
2023-05-01T18:58:05.796Z,85.47
2023-05-01T19:00:33.140Z,83.45
2023-05-01T19:03:00.827Z,84.18
2023-05-01T19:05:28.561Z,85.56
2023-05-01T19:08:00.657Z,86.49
2023-05-01T19:10:27.900Z,86.87
2023-05-01T19:12:57.815Z,86.62
2023-05-01T19:15:25.200Z,89.28
2023-05-01T19:17:52.693Z,85.98
2023-05-01T19:20:22.895Z,94.90
2023-05-01T19:22:50.402Z,98.97
2023-05-01T19:25:21.417Z,99.27
2023-05-01T19:27:50.919Z,100.00
2023-05-01T19:30:18.380Z,100.00
2023-05-01T19:32:46.701Z,100.00
2023-05-01T19:35:14.475Z,100.00
2023-05-01T19:37:41.808Z,100.00
2023-05-01T19:40:10.024Z,100.00
2023-05-01T19:42:37.471Z,100.00
2023-05-01T19:45:05.358Z,100.00
2023-05-01T19:47:32.793Z,100.00
2023-05-01T19:50:00.882Z,100.00
2023-05-01T19:52:28.475Z,100.00
2023-05-01T19:54:55.966Z,100.00
2023-05-01T19:57:24.029Z,100.00
2023-05-01T19:59:53.644Z,100.00
2023-05-01T20:02:22.117Z,100.00
2023-05-01T20:04:49.670Z,100.00
2023-05-01T20:07:18.526Z,100.00
2023-05-01T20:09:46.046Z,100.00
2023-05-01T20:12:13.547Z,100.00
2023-05-01T20:14:40.961Z,100.00
2023-05-01T20:17:09.389Z,100.00
2023-05-01T20:19:39.611Z,100.00
2023-05-01T20:22:07.371Z,100.00
2023-05-01T20:24:34.754Z,100.00
2023-05-01T20:27:04.337Z,100.00
2023-05-01T20:29:32.374Z,100.00
2023-05-01T20:32:00.400Z,100.00
2023-05-01T20:34:27.914Z,100.00
2023-05-01T20:36:55.224Z,100.00
2023-05-01T20:39:22.589Z,100.00
2023-05-01T20:41:50.118Z,100.00
2023-05-01T20:44:17.504Z,100.00
2023-05-01T20:46:45.009Z,100.00
2023-05-01T20:49:15.636Z,100.00
2023-05-01T20:51:43.559Z,100.00
2023-05-01T20:54:11.100Z,100.00
2023-05-01T20:56:38.545Z,100.00
2023-05-01T20:59:08.692Z,100.00
2023-05-01T21:01:36.116Z,100.00
2023-05-01T21:04:04.239Z,100.00
2023-05-01T21:06:32.849Z,100.00
2023-05-01T21:09:01.164Z,100.00
2023-05-01T21:11:28.595Z,100.00
2023-05-01T21:13:57.619Z,100.00
2023-05-01T21:16:27.690Z,100.00
2023-05-01T21:18:55.257Z,100.00
2023-05-01T21:21:27.005Z,100.00
2023-05-01T21:23:54.607Z,100.00
2023-05-01T21:26:22.224Z,100.00
2023-05-01T21:28:49.843Z,100.00
2023-05-01T21:31:17.220Z,100.00
2023-05-01T21:33:47.819Z,100.00
2023-05-01T21:36:18.227Z,100.00
2023-05-01T21:38:46.140Z,100.00
2023-05-01T21:41:15.391Z,100.00
2023-05-01T21:43:43.438Z,100.00
2023-05-01T21:46:15.744Z,100.00
2023-05-01T21:48:43.490Z,100.00
2023-05-01T21:51:10.922Z,100.00
2023-05-01T21:53:42.335Z,100.00
2023-05-01T21:56:11.094Z,100.00
2023-05-01T21:58:38.761Z,100.00
2023-05-01T22:01:06.455Z,100.00
2023-05-01T22:03:34.415Z,100.00
2023-05-01T22:06:03.885Z,100.00
2023-05-01T22:08:31.384Z,100.00
2023-05-01T22:10:58.686Z,100.00
2023-05-01T22:13:33.117Z,100.00
2023-05-01T22:16:00.662Z,100.00
2023-05-01T22:18:29.168Z,100.00
2023-05-01T22:20:56.675Z,100.00
2023-05-01T22:23:24.073Z,100.00
2023-05-01T22:25:51.672Z,100.00
2023-05-01T22:28:20.856Z,100.00
2023-05-01T22:30:48.424Z,100.00
2023-05-01T22:33:15.977Z,100.00
2023-05-01T22:35:43.400Z,100.00
2023-05-01T22:38:13.433Z,100.00
2023-05-01T22:40:40.804Z,100.00
2023-05-01T22:43:08.817Z,100.00
2023-05-01T22:45:36.484Z,100.00
2023-05-01T22:48:04.245Z,100.00
2023-05-01T22:50:31.659Z,100.00
2023-05-01T22:52:59.081Z,100.00
2023-05-01T22:55:26.420Z,100.00
2023-05-01T22:57:53.857Z,100.00
2023-05-01T23:00:22.254Z,100.00
2023-05-01T23:02:51.022Z,100.00
2023-05-01T23:05:18.493Z,100.00
2023-05-01T23:07:45.919Z,100.00
2023-05-01T23:10:15.058Z,100.00
2023-05-01T23:12:44.323Z,100.00
2023-05-01T23:15:16.968Z,100.00
2023-05-01T23:17:44.618Z,100.00
2023-05-01T23:20:18.748Z,100.00
2023-05-01T23:22:47.353Z,100.00
2023-05-01T23:25:21.303Z,100.00
2023-05-01T23:27:54.080Z,100.00
2023-05-01T23:30:22.040Z,100.00
2023-05-01T23:32:49.780Z,100.00
2023-05-01T23:35:23.732Z,100.00
2023-05-01T23:37:52.929Z,100.00
2023-05-01T23:40:20.435Z,100.00
2023-05-01T23:42:48.590Z,100.00
2023-05-01T23:45:16.992Z,100.00
2023-05-01T23:47:44.447Z,100.00
2023-05-01T23:50:11.945Z,100.00
2023-05-01T23:52:39.408Z,100.00
2023-05-01T23:55:06.945Z,100.00
2023-05-01T23:57:34.337Z,100.00
